createdAt,value
2018-11-23T00:00:40.346Z,41.13
2018-11-23T00:04:53.167Z,36.83
2018-11-23T00:09:07.499Z,40.93
2018-11-23T00:13:20.303Z,42.33
2018-11-23T00:17:33.296Z,43.67
2018-11-23T00:21:46.044Z,44.17
2018-11-23T00:25:59.324Z,43.37
2018-11-23T00:30:14.278Z,44.73
2018-11-23T00:34:26.942Z,46.17
2018-11-23T00:38:40.323Z,43.50
2018-11-23T00:42:53.750Z,36.90
2018-11-23T00:47:07.488Z,40.33
2018-11-23T00:51:20.540Z,43.00
2018-11-23T00:55:33.234Z,43.03
2018-11-23T00:59:46.194Z,38.13
2018-11-23T01:03:58.969Z,38.27
2018-11-23T01:08:11.937Z,33.20
2018-11-23T01:12:24.543Z,35.90
2018-11-23T01:16:38.351Z,38.30
2018-11-23T01:20:51.338Z,30.13
2018-11-23T01:25:04.656Z,28.83
2018-11-23T01:29:17.276Z,22.50
2018-11-23T01:33:30.634Z,23.07
2018-11-23T01:37:43.877Z,19.17
2018-11-23T01:41:56.580Z,17.03
2018-11-23T01:46:09.618Z,11.43
2018-11-23T01:50:24.091Z,9.47
2018-11-23T01:54:36.909Z,9.53
2018-11-23T01:58:49.938Z,10.17
2018-11-23T02:03:02.644Z,14.23
2018-11-23T02:07:15.748Z,12.17
2018-11-23T02:11:28.391Z,12.47
2018-11-23T02:15:41.441Z,11.57
2018-11-23T02:19:57.189Z,14.97
2018-11-23T02:24:10.062Z,14.37
2018-11-23T02:28:23.427Z,11.10
2018-11-23T02:32:36.123Z,10.93
2018-11-23T02:36:49.143Z,19.97
2018-11-23T02:41:01.816Z,14.07
2018-11-23T02:45:22.715Z,9.97
2018-11-23T02:49:36.728Z,14.17
2018-11-23T02:53:50.241Z,16.10
2018-11-23T02:58:03.312Z,14.37
2018-11-23T03:02:16.407Z,15.33
2018-11-23T03:06:29.246Z,16.73
2018-11-23T03:10:42.316Z,19.90
2018-11-23T03:14:54.999Z,18.60
2018-11-23T03:19:08.618Z,19.90
2018-11-23T03:23:21.700Z,18.10
2018-11-23T03:27:35.010Z,15.07
2018-11-23T03:31:47.635Z,22.63
2018-11-23T03:36:00.891Z,25.83
2018-11-23T03:40:14.053Z,32.77
2018-11-23T03:44:27.317Z,35.03
2018-11-23T03:48:40.292Z,35.00
2018-11-23T03:52:53.371Z,38.27
2018-11-23T03:57:06.141Z,40.47
2018-11-23T04:01:19.171Z,47.50
2018-11-23T04:05:31.777Z,49.10
2018-11-23T04:09:46.075Z,58.23
2018-11-23T04:13:59.027Z,52.83
2018-11-23T04:18:12.315Z,51.00
2018-11-23T04:22:25.404Z,48.93
2018-11-23T04:26:38.379Z,49.77
2018-11-23T04:30:51.317Z,45.73
2018-11-23T04:35:04.496Z,46.90
2018-11-23T04:39:17.339Z,45.87
2018-11-23T04:43:31.041Z,40.03
2018-11-23T04:47:44.035Z,42.57
2018-11-23T04:51:56.637Z,39.80
2018-11-23T04:56:09.680Z,43.80
2018-11-23T05:00:22.667Z,40.97
2018-11-23T05:04:35.445Z,39.23
2018-11-23T05:08:48.777Z,42.23
2018-11-23T05:13:01.860Z,37.03
2018-11-23T05:17:14.711Z,37.23
2018-11-23T05:21:30.426Z,33.37
2018-11-23T05:25:43.257Z,39.37
2018-11-23T05:29:56.516Z,40.93
2018-11-23T05:34:09.196Z,38.17
2018-11-23T05:38:22.450Z,32.57
2018-11-23T05:42:35.528Z,37.73
2018-11-23T05:46:48.472Z,37.93
2018-11-23T05:51:01.527Z,34.30
2018-11-23T05:55:14.291Z,39.30
2018-11-23T05:59:27.286Z,35.40
2018-11-23T06:03:40.366Z,28.80
2018-11-23T06:07:53.133Z,32.00
2018-11-23T06:12:06.167Z,34.00
2018-11-23T06:16:18.788Z,32.87
2018-11-23T06:20:31.780Z,33.57
2018-11-23T06:24:44.533Z,37.27
2018-11-23T06:28:57.739Z,40.63
2018-11-23T06:33:38.831Z,32.00
2018-11-23T06:37:52.046Z,38.07
2018-11-23T06:42:04.818Z,37.87
2018-11-23T06:46:17.811Z,37.13
2018-11-23T06:50:30.635Z,37.87
2018-11-23T06:54:44.884Z,44.00
2018-11-23T06:58:57.663Z,39.30
2018-11-23T07:03:11.768Z,37.00
2018-11-23T07:07:24.759Z,36.70
2018-11-23T07:11:42.646Z,32.63
2018-11-23T07:15:56.533Z,36.60
2018-11-23T07:20:10.908Z,34.83
2018-11-23T07:24:23.695Z,37.83
2018-11-23T08:37:42.929Z,25.87
2018-11-23T08:42:01.521Z,29.40
2018-11-23T08:46:14.377Z,26.67
2018-11-23T08:50:28.781Z,36.70
2018-11-23T08:54:41.100Z,34.37
2018-11-23T08:58:53.614Z,38.83
2018-11-23T09:03:23.397Z,38.00
2018-11-23T09:07:50.494Z,36.50
2018-11-23T09:12:09.894Z,35.40
2018-11-23T09:16:26.121Z,36.30
2018-11-23T09:20:38.571Z,34.83
2018-11-23T09:24:50.780Z,40.33
2018-11-23T09:29:02.897Z,41.57
2018-11-23T09:37:59.976Z,42.80
2018-11-23T09:42:12.550Z,37.17
2018-11-23T09:46:29.398Z,42.17
2018-11-23T09:50:41.829Z,42.33
2018-11-23T09:54:54.301Z,38.37
2018-11-23T09:59:06.384Z,37.60
2018-11-23T10:03:18.506Z,37.87
2018-11-23T10:07:30.671Z,39.97
2018-11-23T10:11:42.880Z,40.23
2018-11-23T10:15:54.940Z,41.23
2018-11-23T10:20:08.796Z,43.73
2018-11-23T10:24:21.370Z,40.03
2018-11-23T10:28:33.706Z,43.30
2018-11-23T10:32:46.580Z,42.43
2018-11-23T10:36:58.564Z,45.07
2018-11-23T10:41:10.704Z,38.17
2018-11-23T10:45:26.429Z,34.97
2018-11-23T10:49:39.539Z,42.13
2018-11-23T10:53:52.975Z,36.03
2018-11-23T10:58:05.172Z,32.17
2018-11-23T11:02:24.991Z,35.37
2018-11-23T11:06:48.145Z,34.37
2018-11-23T11:11:01.300Z,32.60
2018-11-23T11:15:13.456Z,28.10
2018-11-23T11:19:25.610Z,32.17
2018-11-23T11:23:38.896Z,31.33
2018-11-23T11:27:51.481Z,31.67
2018-11-23T11:32:05.201Z,27.43
2018-11-23T11:36:25.323Z,28.17
2018-11-23T11:40:51.278Z,28.67
2018-11-23T11:45:07.894Z,23.47
2018-11-23T11:49:20.859Z,20.03
2018-11-23T11:53:38.684Z,22.87
2018-11-23T11:57:54.950Z,20.40
2018-11-23T12:02:19.208Z,13.50
2018-11-23T12:06:31.228Z,5.77
2018-11-23T12:10:43.251Z,4.13
2018-11-23T12:15:05.695Z,3.80
2018-11-23T12:19:18.125Z,5.33
2018-11-23T12:23:30.310Z,6.97
2018-11-23T12:27:52.868Z,5.30
2018-11-23T12:32:05.108Z,8.10
2018-11-23T12:36:17.488Z,6.93
2018-11-23T12:40:29.572Z,7.70
2018-11-23T12:44:41.620Z,7.10
2018-11-23T12:48:54.300Z,9.13
2018-11-23T12:53:08.123Z,7.10
2018-11-23T12:57:38.359Z,10.53
2018-11-23T13:01:51.825Z,7.67
2018-11-23T13:06:04.384Z,5.83
2018-11-23T13:10:16.910Z,4.23
2018-11-23T13:15:12.644Z,5.80
2018-11-23T13:19:32.948Z,5.40
2018-11-23T13:23:48.428Z,5.03
2018-11-23T13:28:49.459Z,5.13
2018-11-23T13:33:26.233Z,5.73
2018-11-23T13:37:53.628Z,3.13
2018-11-23T13:42:06.488Z,7.20
2018-11-23T13:46:24.698Z,6.73
2018-11-23T13:50:37.897Z,8.13
2018-11-23T13:54:50.414Z,5.60
2018-11-23T13:59:11.194Z,6.07
2018-11-23T14:03:23.832Z,3.87
2018-11-23T14:07:59.899Z,4.10
2018-11-23T14:12:13.478Z,9.40
2018-11-23T14:16:27.813Z,7.67
2018-11-23T14:20:40.479Z,4.47
2018-11-23T14:24:59.269Z,6.53
2018-11-23T14:29:25.088Z,10.87
2018-11-23T14:33:38.785Z,6.17
2018-11-23T14:37:51.677Z,8.07
2018-11-23T14:42:05.230Z,5.67
2018-11-23T14:46:20.618Z,7.17
2018-11-23T14:50:36.133Z,6.80
2018-11-23T14:54:48.224Z,6.63
2018-11-23T14:59:00.326Z,6.33
2018-11-23T15:03:12.709Z,4.80
2018-11-23T15:07:24.854Z,7.43
2018-11-23T15:11:37.141Z,5.60
2018-11-23T15:15:49.334Z,6.67
2018-11-23T15:20:01.530Z,4.27
2018-11-23T15:24:13.692Z,5.70
2018-11-23T15:28:25.843Z,5.20
2018-11-23T15:32:39.202Z,9.40
2018-11-23T15:36:51.740Z,4.17
2018-11-23T15:41:04.011Z,7.57
2018-11-23T15:45:17.991Z,4.63
2018-11-23T15:49:30.193Z,2.60
2018-11-23T15:53:42.403Z,6.73
2018-11-23T15:57:55.712Z,4.47
2018-11-23T16:02:08.256Z,6.13
2018-11-23T16:06:20.519Z,7.90
2018-11-23T16:10:34.876Z,6.97
2018-11-23T16:14:47.320Z,6.53
2018-11-23T16:18:59.552Z,6.67
2018-11-23T16:23:14.530Z,5.77
2018-11-23T16:27:27.035Z,4.53
2018-11-23T16:31:40.415Z,3.57
2018-11-23T16:35:52.442Z,2.80
2018-11-23T16:40:04.803Z,5.20
2018-11-23T16:44:17.438Z,22.03
2018-11-23T16:48:32.422Z,104.40
2018-11-23T16:52:50.153Z,71.47
2018-11-23T16:57:11.021Z,19.30
2018-11-23T17:01:39.674Z,6.63
2018-11-23T17:06:01.965Z,9.20
2018-11-23T17:10:19.464Z,4.83
2018-11-23T17:14:32.926Z,4.67
2018-11-23T17:18:46.513Z,6.23
2018-11-23T17:23:02.746Z,4.80
2018-11-23T17:27:17.161Z,8.80
2018-11-23T17:31:44.896Z,5.30
2018-11-23T17:36:03.522Z,4.57
2018-11-23T17:40:21.330Z,3.33
2018-11-23T17:44:40.611Z,4.60
2018-11-23T17:49:03.737Z,4.70
2018-11-23T17:53:27.714Z,3.57
2018-11-23T17:57:49.090Z,3.87
2018-11-23T18:02:06.677Z,6.93
2018-11-23T18:06:21.050Z,4.13
2018-11-23T18:10:42.199Z,2.83
2018-11-23T18:14:59.223Z,9.10
2018-11-23T18:19:13.275Z,3.73
2018-11-23T18:23:31.837Z,10.03
2018-11-23T18:27:48.104Z,4.83
2018-11-23T18:32:01.337Z,6.77
2018-11-23T18:36:23.753Z,8.30
2018-11-23T18:40:37.699Z,7.83
2018-11-23T18:44:58.178Z,5.20
2018-11-23T18:49:19.446Z,7.13
2018-11-23T18:53:43.243Z,5.63
2018-11-23T18:58:04.305Z,6.00
2018-11-23T19:02:23.121Z,8.43
2018-11-23T19:06:42.347Z,5.13
2018-11-23T19:11:00.188Z,5.23
2018-11-23T19:15:25.144Z,4.67
2018-11-23T19:19:39.664Z,6.43
2018-11-23T19:23:53.732Z,4.50
2018-11-23T19:28:21.625Z,7.00
2018-11-23T19:32:41.982Z,7.70
2018-11-23T19:37:00.779Z,5.87
2018-11-23T19:41:15.105Z,5.03
2018-11-23T19:45:35.896Z,5.43
2018-11-23T19:49:54.646Z,5.23
2018-11-23T19:54:09.805Z,9.47
2018-11-23T19:58:35.663Z,3.70
2018-11-23T20:02:55.660Z,1.10
2018-11-23T20:07:27.601Z,4.83
2018-11-23T20:11:46.705Z,4.73
2018-11-23T20:24:44.910Z,1.17
2018-11-23T20:29:05.094Z,2.57
2018-11-23T20:37:54.168Z,2.40
2018-11-23T20:42:09.459Z,5.30
2018-11-23T20:46:26.323Z,4.33
2018-11-23T20:50:56.522Z,2.87
2018-11-23T20:55:17.067Z,2.37
2018-11-23T20:59:34.715Z,2.70
2018-11-23T21:03:54.039Z,1.20
2018-11-23T21:08:19.338Z,2.40
2018-11-23T21:12:34.691Z,3.00
2018-11-23T21:16:53.301Z,3.10
2018-11-23T21:21:15.314Z,4.80
2018-11-23T21:25:28.847Z,3.93
2018-11-23T21:30:00.093Z,4.90
2018-11-23T21:34:22.738Z,5.13
2018-11-23T21:38:41.253Z,9.70
2018-11-23T21:43:01.347Z,7.40
2018-11-23T21:47:18.468Z,7.70
2018-11-23T21:51:42.769Z,4.30
2018-11-23T21:56:09.327Z,5.77
2018-11-23T22:00:22.357Z,4.63
2018-11-23T22:04:36.955Z,7.80
2018-11-23T22:08:59.961Z,5.53
2018-11-23T22:13:24.393Z,8.83
2018-11-23T22:17:46.206Z,4.47
2018-11-23T22:22:07.264Z,4.97
2018-11-23T22:26:24.044Z,6.53
2018-11-23T22:30:51.029Z,6.63
2018-11-23T22:35:11.753Z,6.30
2018-11-23T22:39:24.861Z,3.03
2018-11-23T22:43:37.355Z,4.60
2018-11-23T22:47:51.642Z,5.13
2018-11-23T22:52:04.495Z,4.70
2018-11-23T22:56:17.383Z,1.70
2018-11-23T23:00:34.809Z,3.90
2018-11-23T23:04:47.345Z,3.00
2018-11-23T23:08:59.658Z,2.53
2018-11-23T23:13:14.018Z,1.93
2018-11-23T23:17:27.448Z,4.07
2018-11-23T23:21:39.887Z,4.20
2018-11-23T23:25:52.273Z,3.40
2018-11-23T23:30:37.477Z,3.00
2018-11-23T23:34:52.736Z,2.73
2018-11-23T23:39:05.636Z,2.57
2018-11-23T23:43:19.538Z,1.53
2018-11-23T23:47:31.773Z,1.47
2018-11-23T23:51:44.092Z,3.07
2018-11-23T23:55:56.761Z,1.83
